Time;durP1;ratioP1;P1;durP2;ratioP2;P2;SDS_P1;SDS_P2;PMS_P1;PMS_P2;Temp;Humidity;BMP_temperature;BMP_pressure;BME280_temperature;BME280_humidity;BME280_pressure;Samples;Min_cycle;Max_cycle;Signal;HPM_P1;HPM_P2
2021/01/19 00:02:03;;;;;;;10.10;3.50;;;;;;;;;;5046792;28;20452;-88
2021/01/19 00:04:29;;;;;;;8.35;4.15;;;;;;;;;;5044507;28;20497;-86
2021/01/19 00:06:55;;;;;;;6.53;2.80;;;;;;;;;;5047164;28;20177;-91
2021/01/19 00:09:21;;;;;;;9.48;4.00;;;;;;;;;;5049064;28;20441;-88
2021/01/19 00:11:47;;;;;;;12.15;4.18;;;;;;;;;;5040588;28;20188;-87
2021/01/19 00:14:13;;;;;;;9.85;3.65;;;;;;;;;;5041603;28;20183;-87
2021/01/19 00:16:39;;;;;;;8.43;3.33;;;;;;;;;;5046264;28;20722;-85
2021/01/19 00:19:05;;;;;;;13.20;3.65;;;;;;;;;;5042632;28;20228;-88
2021/01/19 00:21:37;;;;;;;12.10;4.05;;;;;;;;;;5045409;28;20186;-90
2021/01/19 00:24:03;;;;;;;8.27;3.15;;;;;;;;;;5060868;28;20364;-86
2021/01/19 00:26:29;;;;;;;8.98;3.75;;;;;;;;;;5046895;28;20220;-86
2021/01/19 00:28:55;;;;;;;5.67;3.50;;;;;;;;;;5048707;28;20186;-87
2021/01/19 00:31:21;;;;;;;5.85;3.10;;;;;;;;;;5063345;28;20444;-91
2021/01/19 00:33:47;;;;;;;6.45;3.53;;;;;;;;;;5045715;28;20182;-86
2021/01/19 00:36:13;;;;;;;10.97;4.13;;;;;;;;;;5041310;28;20174;-87
2021/01/19 00:38:39;;;;;;;9.93;3.20;;;;;;;;;;5043160;28;20462;-85
2021/01/19 00:41:05;;;;;;;8.20;3.13;;;;;;;;;;5040756;28;20434;-84
2021/01/19 00:43:31;;;;;;;4.95;2.95;;;;;;;;;;5043888;28;20449;-83
2021/01/19 00:45:57;;;;;;;10.13;3.70;;;;;;;;;;5047986;28;20682;-88
2021/01/19 00:48:23;;;;;;;11.27;3.60;;;;;;;;;;5048660;28;20523;-89
2021/01/19 00:50:49;;;;;;;11.37;3.30;;;;;;;;;;5043460;28;20417;-88
2021/01/19 00:53:18;;;;;;;11.82;3.30;;;;;;;;;;5040309;28;20501;-91
2021/01/19 00:55:44;;;;;;;7.65;2.83;;;;;;;;;;5046374;28;20194;-92
2021/01/19 00:58:10;;;;;;;6.85;2.67;;;;;;;;;;5041052;28;20329;-89
2021/01/19 01:00:39;;;;;;;6.00;3.53;;;;;;;;;;5045987;28;20186;-92
2021/01/19 01:03:05;;;;;;;7.85;3.83;;;;;;;;;;5057163;28;20201;-90
2021/01/19 01:05:31;;;;;;;7.85;2.85;;;;;;;;;;5040712;28;20231;-87
2021/01/19 01:07:59;;;;;;;5.60;3.55;;;;;;;;;;5040791;28;20587;-89
2021/01/19 01:10:26;;;;;;;4.70;2.90;;;;;;;;;;5062255;28;20243;-90
2021/01/19 01:12:51;;;;;;;7.53;3.00;;;;;;;;;;5044248;28;20181;-93
2021/01/19 01:15:20;;;;;;;6.07;3.03;;;;;;;;;;5041998;28;20178;-90
2021/01/19 01:17:46;;;;;;;6.57;2.50;;;;;;;;;;5041761;28;20190;-90
2021/01/19 01:20:12;;;;;;;8.25;2.88;;;;;;;;;;5046689;28;20224;-91
2021/01/19 01:22:39;;;;;;;8.90;3.95;;;;;;;;;;5040559;28;20193;-89
2021/01/19 01:25:05;;;;;;;9.48;2.75;;;;;;;;;;5057887;28;20205;-87
2021/01/19 01:27:31;;;;;;;4.18;2.47;;;;;;;;;;5041162;28;20181;-85
2021/01/19 01:29:57;;;;;;;6.67;2.90;;;;;;;;;;5042524;28;20165;-93
2021/01/19 01:32:26;;;;;;;3.28;1.90;;;;;;;;;;5045848;28;20872;-90
2021/01/19 01:35:00;;;;;;;7.22;3.28;;;;;;;;;;5044295;28;20280;-93
2021/01/19 01:37:29;;;;;;;11.60;3.25;;;;;;;;;;5040022;28;20185;-92
2021/01/19 01:39:58;;;;;;;15.38;4.05;;;;;;;;;;5061997;28;20191;-89
2021/01/19 01:42:27;;;;;;;4.53;2.70;;;;;;;;;;5047397;28;20192;-93
2021/01/19 01:44:53;;;;;;;6.35;2.50;;;;;;;;;;5056268;28;20198;-90
2021/01/19 01:47:22;;;;;;;5.32;3.10;;;;;;;;;;5045949;28;20216;-90
2021/01/19 01:49:49;;;;;;;3.60;2.33;;;;;;;;;;5041490;28;20520;-92
2021/01/19 01:52:16;;;;;;;7.10;2.15;;;;;;;;;;5060675;28;20647;-93
2021/01/19 01:54:42;;;;;;;7.18;2.53;;;;;;;;;;5045899;28;20198;-95
2021/01/19 01:57:08;;;;;;;9.52;2.20;;;;;;;;;;5039929;28;20182;-87
2021/01/19 01:59:34;;;;;;;7.15;2.40;;;;;;;;;;5041469;28;20190;-88
2021/01/19 02:02:12;;;;;;;6.25;2.72;;;;;;;;;;5039388;28;20628;-91
2021/01/19 02:04:41;;;;;;;7.20;2.85;;;;;;;;;;5034416;28;20766;-93
2021/01/19 02:07:33;;;;;;;13.48;2.72;;;;;;;;;;5040954;28;20179;-90
2021/01/19 02:10:17;;;;;;;4.63;2.40;;;;;;;;;;5057513;28;20185;-91
2021/01/19 02:12:48;;;;;;;5.50;2.30;;;;;;;;;;5044055;28;20185;-92
2021/01/19 02:15:15;;;;;;;10.07;2.55;;;;;;;;;;5038297;28;20178;-90
2021/01/19 02:17:50;;;;;;;4.13;2.28;;;;;;;;;;5045585;28;20188;-90
2021/01/19 02:20:43;;;;;;;3.83;1.92;;;;;;;;;;5044415;28;20236;-88
2021/01/19 02:23:13;;;;;;;7.50;2.65;;;;;;;;;;5038852;28;20226;-92
2021/01/19 02:25:48;;;;;;;7.55;2.70;;;;;;;;;;5043841;28;20322;-91
2021/01/19 02:28:14;;;;;;;6.45;2.33;;;;;;;;;;5042204;28;20189;-89
2021/01/19 02:30:58;;;;;;;6.63;2.20;;;;;;;;;;5042728;28;20170;-90
2021/01/19 02:33:30;;;;;;;5.10;2.13;;;;;;;;;;5053975;28;20468;-93
2021/01/19 02:36:02;;;;;;;10.68;2.67;;;;;;;;;;5059749;28;20178;-92
2021/01/19 02:38:33;;;;;;;7.20;2.10;;;;;;;;;;5045452;28;20178;-88
2021/01/19 02:41:01;;;;;;;8.65;2.88;;;;;;;;;;5051423;28;20192;-89
2021/01/19 02:43:27;;;;;;;3.90;2.22;;;;;;;;;;5040431;28;20200;-90
2021/01/19 02:45:54;;;;;;;6.85;2.75;;;;;;;;;;5048901;28;20233;-92
2021/01/19 02:48:28;;;;;;;3.97;2.45;;;;;;;;;;5047069;28;20277;-95
2021/01/19 02:50:57;;;;;;;4.38;2.00;;;;;;;;;;5041369;28;20265;-92
2021/01/19 02:53:24;;;;;;;4.55;1.90;;;;;;;;;;5037200;28;20193;-89
2021/01/19 02:55:52;;;;;;;9.07;2.60;;;;;;;;;;5045474;28;20188;-89
2021/01/19 02:58:37;;;;;;;2.70;1.98;;;;;;;;;;5038986;28;20636;-90
2021/01/19 03:01:08;;;;;;;5.57;2.30;;;;;;;;;;5036111;28;20411;-88
2021/01/19 03:03:37;;;;;;;7.90;2.63;;;;;;;;;;5042917;28;20177;-94
2021/01/19 03:06:07;;;;;;;4.63;2.10;;;;;;;;;;5051964;28;20277;-90
2021/01/19 03:08:34;;;;;;;5.88;2.20;;;;;;;;;;5046121;28;20181;-90
2021/01/19 03:11:00;;;;;;;4.43;2.10;;;;;;;;;;5044672;28;20209;-92
2021/01/19 03:13:26;;;;;;;8.25;2.65;;;;;;;;;;5060250;28;20190;-91
2021/01/19 03:16:04;;;;;;;5.78;2.60;;;;;;;;;;5043678;28;20670;-91
2021/01/19 03:18:30;;;;;;;2.90;1.73;;;;;;;;;;5043351;28;20231;-91
2021/01/19 03:20:56;;;;;;;6.05;2.88;;;;;;;;;;5040272;28;20173;-90
2021/01/19 03:23:25;;;;;;;6.80;3.03;;;;;;;;;;5047869;28;20201;-88
2021/01/19 03:25:51;;;;;;;6.30;2.42;;;;;;;;;;5042787;28;20205;-88
2021/01/19 03:28:17;;;;;;;10.80;2.22;;;;;;;;;;5044674;28;20190;-94
2021/01/19 03:30:43;;;;;;;7.73;2.53;;;;;;;;;;5058664;28;20182;-92
2021/01/19 03:33:09;;;;;;;5.18;2.00;;;;;;;;;;5043401;28;20507;-92
2021/01/19 03:35:39;;;;;;;10.20;3.83;;;;;;;;;;5041971;28;20193;-91
2021/01/19 03:38:08;;;;;;;6.22;2.20;;;;;;;;;;5054047;28;20249;-92
2021/01/19 03:40:34;;;;;;;7.35;2.00;;;;;;;;;;5046062;28;20202;-87
2021/01/19 03:43:00;;;;;;;6.00;2.15;;;;;;;;;;5059921;28;20189;-92
2021/01/19 03:45:27;;;;;;;6.20;2.20;;;;;;;;;;5050142;28;20239;-91
2021/01/19 03:47:54;;;;;;;6.05;2.28;;;;;;;;;;5059855;28;20170;-91
2021/01/19 03:50:20;;;;;;;5.60;2.55;;;;;;;;;;5041930;28;20197;-88
2021/01/19 03:52:46;;;;;;;5.40;2.15;;;;;;;;;;5044749;28;21013;-94
2021/01/19 03:55:12;;;;;;;6.68;1.90;;;;;;;;;;5046295;28;20193;-89
2021/01/19 03:57:38;;;;;;;9.80;2.83;;;;;;;;;;5045681;28;20176;-90
2021/01/19 04:00:06;;;;;;;6.65;2.47;;;;;;;;;;5042958;28;20173;-91
2021/01/19 04:02:34;;;;;;;7.97;2.78;;;;;;;;;;5048602;28;20280;-92
2021/01/19 04:05:07;;;;;;;10.48;2.00;;;;;;;;;;5054458;28;20244;-90
2021/01/19 04:07:33;;;;;;;3.78;2.20;;;;;;;;;;5046672;28;20190;-93
2021/01/19 04:09:59;;;;;;;7.28;2.22;;;;;;;;;;5052394;28;20220;-92
2021/01/19 04:12:28;;;;;;;5.72;2.67;;;;;;;;;;5048353;28;20189;-91
2021/01/19 04:14:54;;;;;;;5.25;2.63;;;;;;;;;;5042425;28;20344;-91
2021/01/19 04:17:29;;;;;;;8.10;1.90;;;;;;;;;;5050509;28;20188;-92
2021/01/19 04:19:55;;;;;;;8.38;2.63;;;;;;;;;;5047496;28;20639;-90
2021/01/19 04:22:25;;;;;;;9.73;3.15;;;;;;;;;;5043872;28;20561;-91
2021/01/19 04:24:54;;;;;;;6.38;2.15;;;;;;;;;;5040086;28;20224;-91
2021/01/19 04:27:20;;;;;;;4.78;2.22;;;;;;;;;;5041209;28;20174;-92
2021/01/19 04:29:52;;;;;;;5.97;2.10;;;;;;;;;;5041440;28;20182;-91
2021/01/19 04:32:27;;;;;;;7.00;2.05;;;;;;;;;;5047442;28;20188;-88
2021/01/19 04:34:53;;;;;;;6.35;2.60;;;;;;;;;;5048005;28;20177;-88
2021/01/19 04:37:19;;;;;;;8.52;2.55;;;;;;;;;;5043219;28;20196;-88
2021/01/19 04:39:45;;;;;;;2.60;2.07;;;;;;;;;;5046275;28;20186;-88
2021/01/19 04:42:12;;;;;;;5.57;2.40;;;;;;;;;;5040655;28;20432;-91
2021/01/19 04:44:38;;;;;;;3.03;1.98;;;;;;;;;;5048861;28;20482;-92
2021/01/19 04:47:05;;;;;;;10.77;3.20;;;;;;;;;;5047495;28;20182;-87
2021/01/19 04:49:35;;;;;;;8.85;2.83;;;;;;;;;;5045545;28;20364;-92
2021/01/19 04:52:04;;;;;;;8.73;2.92;;;;;;;;;;5050761;28;20186;-91
2021/01/19 04:54:33;;;;;;;5.47;2.65;;;;;;;;;;5047039;28;20211;-93
2021/01/19 04:57:02;;;;;;;7.55;2.47;;;;;;;;;;5042783;28;20181;-90
2021/01/19 04:59:38;;;;;;;6.90;2.80;;;;;;;;;;5048056;28;20593;-89
2021/01/19 05:02:30;;;;;;;4.60;2.00;;;;;;;;;;5045698;28;20188;-94
2021/01/19 05:05:14;;;;;;;9.75;2.60;;;;;;;;;;5044767;28;20225;-89
2021/01/19 05:07:45;;;;;;;3.95;2.40;;;;;;;;;;5047835;28;20217;-88
2021/01/19 05:10:14;;;;;;;9.25;2.63;;;;;;;;;;5047942;28;20200;-92
2021/01/19 05:12:51;;;;;;;5.80;2.35;;;;;;;;;;5045064;28;20197;-91
2021/01/19 05:15:21;;;;;;;5.05;2.30;;;;;;;;;;5057973;28;20197;-92
2021/01/19 05:17:48;;;;;;;3.67;2.60;;;;;;;;;;5056233;28;20273;-92
2021/01/19 05:20:14;;;;;;;6.32;2.50;;;;;;;;;;5046527;28;20192;-92
2021/01/19 05:22:40;;;;;;;8.35;2.60;;;;;;;;;;5045438;28;20214;-91
2021/01/19 05:25:07;;;;;;;6.13;2.38;;;;;;;;;;5046825;28;20214;-90
2021/01/19 05:27:33;;;;;;;6.15;1.95;;;;;;;;;;5047268;28;20189;-86
2021/01/19 05:30:20;;;;;;;5.75;2.53;;;;;;;;;;5043320;28;20170;-93
2021/01/19 05:32:46;;;;;;;5.65;2.20;;;;;;;;;;5048514;28;20180;-90
2021/01/19 05:35:13;;;;;;;6.95;2.20;;;;;;;;;;5051192;28;20209;-89
2021/01/19 05:37:41;;;;;;;6.18;2.35;;;;;;;;;;5045271;28;20190;-93
2021/01/19 05:40:07;;;;;;;7.15;2.30;;;;;;;;;;5040625;28;20198;-92
2021/01/19 05:42:33;;;;;;;6.75;2.60;;;;;;;;;;5043963;28;20186;-90
2021/01/19 05:45:06;;;;;;;5.50;2.50;;;;;;;;;;5041337;28;20200;-92
2021/01/19 05:47:33;;;;;;;6.82;2.42;;;;;;;;;;5043869;28;20440;-91
2021/01/19 05:50:08;;;;;;;7.43;2.13;;;;;;;;;;5039700;28;20675;-92
2021/01/19 05:52:36;;;;;;;7.28;3.30;;;;;;;;;;5052766;28;20240;-90
2021/01/19 05:55:02;;;;;;;7.90;2.75;;;;;;;;;;5042152;28;20189;-93
2021/01/19 05:57:28;;;;;;;4.95;2.28;;;;;;;;;;5042960;28;20193;-90
2021/01/19 05:59:54;;;;;;;10.57;2.65;;;;;;;;;;5059569;28;20194;-89
2021/01/19 06:02:24;;;;;;;7.60;2.70;;;;;;;;;;5045679;28;20201;-92
2021/01/19 06:04:50;;;;;;;6.30;1.90;;;;;;;;;;5045277;28;20230;-87
2021/01/19 06:07:23;;;;;;;15.43;3.15;;;;;;;;;;5040269;28;20184;-83
2021/01/19 06:09:50;;;;;;;10.18;2.92;;;;;;;;;;5043037;28;20185;-88
2021/01/19 06:12:17;;;;;;;3.60;1.80;;;;;;;;;;5038931;28;20178;-91
2021/01/19 06:14:53;;;;;;;11.68;2.17;;;;;;;;;;5040657;28;20190;-90
2021/01/19 06:17:23;;;;;;;7.55;2.25;;;;;;;;;;5049342;28;20280;-86
2021/01/19 06:19:50;;;;;;;7.57;2.53;;;;;;;;;;5045148;28;20185;-90
2021/01/19 06:22:17;;;;;;;8.55;2.83;;;;;;;;;;5038569;28;20257;-85
2021/01/19 06:24:47;;;;;;;10.43;2.90;;;;;;;;;;5056539;28;20236;-87
2021/01/19 06:27:25;;;;;;;5.72;2.20;;;;;;;;;;5039674;28;20183;-86
2021/01/19 06:29:52;;;;;;;10.48;2.60;;;;;;;;;;5040405;28;20196;-83
2021/01/19 06:32:19;;;;;;;6.53;2.67;;;;;;;;;;5045506;28;20228;-90
2021/01/19 06:34:45;;;;;;;5.28;2.90;;;;;;;;;;5044381;28;20228;-83
2021/01/19 06:37:23;;;;;;;14.20;3.05;;;;;;;;;;5045638;28;20248;-86
2021/01/19 06:39:54;;;;;;;9.85;3.13;;;;;;;;;;5042487;28;20196;-85
2021/01/19 06:42:24;;;;;;;9.07;3.10;;;;;;;;;;5054757;28;20265;-82
2021/01/19 06:44:54;;;;;;;15.75;3.03;;;;;;;;;;5053914;28;20211;-84
2021/01/19 06:47:20;;;;;;;8.80;2.65;;;;;;;;;;5043417;28;20177;-87
2021/01/19 06:49:46;;;;;;;7.75;2.45;;;;;;;;;;5042688;28;20178;-85
2021/01/19 06:52:14;;;;;;;11.52;2.67;;;;;;;;;;5038542;28;20818;-85
2021/01/19 06:54:49;;;;;;;4.78;2.30;;;;;;;;;;5042954;28;20178;-87
2021/01/19 06:57:38;;;;;;;6.72;2.45;;;;;;;;;;5058756;28;20181;-83
2021/01/19 07:00:11;;;;;;;7.95;2.72;;;;;;;;;;5054707;28;20198;-84
2021/01/19 07:02:39;;;;;;;4.88;2.10;;;;;;;;;;5039845;28;20188;-82
2021/01/19 07:05:23;;;;;;;8.93;2.60;;;;;;;;;;5037779;28;20226;-85
2021/01/19 07:08:13;;;;;;;5.70;2.30;;;;;;;;;;5044710;28;20729;-83
2021/01/19 07:10:48;;;;;;;10.48;2.25;;;;;;;;;;5047759;28;20240;-82
2021/01/19 07:13:24;;;;;;;6.95;3.15;;;;;;;;;;5037369;28;20193;-86
2021/01/19 07:15:56;;;;;;;12.23;2.63;;;;;;;;;;5042970;28;20192;-82
2021/01/19 07:18:23;;;;;;;7.50;2.20;;;;;;;;;;5054672;28;20196;-81
2021/01/19 07:20:58;;;;;;;5.72;2.20;;;;;;;;;;5046161;28;20185;-82
2021/01/19 07:23:39;;;;;;;6.25;2.35;;;;;;;;;;5043786;28;20548;-81
2021/01/19 07:26:05;;;;;;;5.32;2.17;;;;;;;;;;5044029;28;20213;-83
2021/01/19 07:28:32;;;;;;;3.97;2.42;;;;;;;;;;5041613;28;20530;-82
2021/01/19 07:30:58;;;;;;;12.48;2.83;;;;;;;;;;5043284;28;20211;-85
2021/01/19 07:33:25;;;;;;;10.27;2.70;;;;;;;;;;5042844;28;20245;-84
2021/01/19 07:35:51;;;;;;;5.65;2.38;;;;;;;;;;5057954;28;20178;-84
2021/01/19 07:38:23;;;;;;;5.65;2.50;;;;;;;;;;5043639;28;20185;-84
2021/01/19 07:40:49;;;;;;;4.65;2.08;;;;;;;;;;5042995;28;20178;-80
2021/01/19 07:43:16;;;;;;;5.93;2.40;;;;;;;;;;5044109;28;20188;-82
2021/01/19 07:45:54;;;;;;;7.82;2.58;;;;;;;;;;5043052;28;20737;-83
2021/01/19 07:48:36;;;;;;;5.47;2.28;;;;;;;;;;5055210;28;20181;-83
2021/01/19 07:51:12;;;;;;;7.38;2.60;;;;;;;;;;5042278;28;20636;-82
2021/01/19 07:53:51;;;;;;;6.00;3.20;;;;;;;;;;5043503;28;20758;-84
2021/01/19 07:56:28;;;;;;;6.82;3.13;;;;;;;;;;5039448;28;20610;-82
2021/01/19 07:58:54;;;;;;;6.60;2.65;;;;;;;;;;5040122;28;20513;-85
2021/01/19 08:01:23;;;;;;;7.70;2.70;;;;;;;;;;5041214;28;20279;-82
2021/01/19 08:03:49;;;;;;;7.97;3.15;;;;;;;;;;5042022;28;20215;-85
2021/01/19 08:06:15;;;;;;;12.32;3.10;;;;;;;;;;5037774;28;20213;-82
2021/01/19 08:08:41;;;;;;;6.15;2.83;;;;;;;;;;5036773;28;20966;-83
2021/01/19 08:11:18;;;;;;;6.05;3.15;;;;;;;;;;5049788;28;20276;-80
2021/01/19 08:13:46;;;;;;;11.00;3.85;;;;;;;;;;5036254;28;20180;-81
2021/01/19 08:16:26;;;;;;;6.40;2.75;;;;;;;;;;5044880;28;20227;-84
2021/01/19 08:18:58;;;;;;;16.15;3.10;;;;;;;;;;5055611;28;20189;-82
2021/01/19 08:21:25;;;;;;;12.27;3.92;;;;;;;;;;5041792;28;20181;-81
2021/01/19 08:23:50;;;;;;;11.30;3.38;;;;;;;;;;5059860;28;20524;-81
2021/01/19 08:26:17;;;;;;;11.45;3.47;;;;;;;;;;5049916;28;20224;-81
2021/01/19 08:28:43;;;;;;;9.02;3.15;;;;;;;;;;5042292;28;20341;-84
2021/01/19 08:31:15;;;;;;;11.20;3.67;;;;;;;;;;5041421;28;20209;-83
2021/01/19 08:33:41;;;;;;;12.73;3.25;;;;;;;;;;5043788;28;20181;-82
2021/01/19 08:36:10;;;;;;;7.78;2.60;;;;;;;;;;5043039;28;20194;-82
2021/01/19 08:38:36;;;;;;;5.97;3.22;;;;;;;;;;5046929;28;20287;-84
2021/01/19 08:41:02;;;;;;;8.95;3.78;;;;;;;;;;5047899;28;20186;-80
2021/01/19 08:43:28;;;;;;;7.82;3.13;;;;;;;;;;5044839;28;20221;-81
2021/01/19 08:45:54;;;;;;;7.93;3.60;;;;;;;;;;5053267;28;20695;-84
2021/01/19 08:48:21;;;;;;;11.48;3.70;;;;;;;;;;5042953;28;20516;-83
2021/01/19 08:50:47;;;;;;;7.18;3.58;;;;;;;;;;5044304;28;20186;-82
2021/01/19 08:53:14;;;;;;;11.75;4.85;;;;;;;;;;5044377;28;20186;-81
2021/01/19 08:55:44;;;;;;;6.05;2.95;;;;;;;;;;5058472;28;20186;-82
2021/01/19 08:58:18;;;;;;;6.97;3.30;;;;;;;;;;5047072;28;20338;-82
2021/01/19 09:00:44;;;;;;;8.50;2.97;;;;;;;;;;5045421;28;20247;-82
2021/01/19 09:37:27;;;;;;;6.28;3.50;;;;;;;;;;5032740;28;21103;-79
2021/01/19 11:01:52;;;;;;;16.33;8.68;;;;;;;;;;5133058;27;20563;-84
2021/01/19 11:04:18;;;;;;;12.30;7.65;;;;;;;;;;5132864;27;20535;-83
2021/01/19 11:06:44;;;;;;;12.15;6.38;;;;;;;;;;5097589;28;20800;-85
2021/01/19 11:09:10;;;;;;;12.80;5.73;;;;;;;;;;5102223;28;20171;-84
2021/01/19 11:11:36;;;;;;;11.90;5.88;;;;;;;;;;5096327;28;20466;-86
2021/01/19 11:14:04;;;;;;;14.73;5.70;;;;;;;;;;5118449;28;20179;-82
2021/01/19 11:16:31;;;;;;;12.32;5.70;;;;;;;;;;5115612;28;20201;-85
2021/01/19 11:19:03;;;;;;;8.95;5.22;;;;;;;;;;5095559;28;20183;-87
2021/01/19 11:21:33;;;;;;;9.50;4.68;;;;;;;;;;5132250;27;20210;-84
2021/01/19 11:24:00;;;;;;;15.10;5.55;;;;;;;;;;5117973;28;20216;-82
2021/01/19 11:26:26;;;;;;;9.57;4.32;;;;;;;;;;5096340;28;20183;-86
2021/01/19 11:28:52;;;;;;;12.90;5.20;;;;;;;;;;5104986;28;20187;-84
2021/01/19 11:31:24;;;;;;;8.77;4.68;;;;;;;;;;5099401;28;20187;-84
2021/01/19 11:33:50;;;;;;;7.72;4.70;;;;;;;;;;5127971;28;20187;-84
2021/01/19 11:36:24;;;;;;;10.85;4.43;;;;;;;;;;5102554;28;20163;-84
2021/01/19 11:38:51;;;;;;;11.63;5.88;;;;;;;;;;5100818;28;20187;-83
2021/01/19 11:41:17;;;;;;;9.20;4.30;;;;;;;;;;5092906;28;20199;-83
2021/01/19 11:43:43;;;;;;;9.93;4.85;;;;;;;;;;5118419;28;20210;-84
2021/01/19 11:46:10;;;;;;;6.05;3.80;;;;;;;;;;5098911;28;20225;-84
2021/01/19 11:48:36;;;;;;;7.93;4.47;;;;;;;;;;5129465;28;20180;-86
2021/01/19 11:51:02;;;;;;;14.32;4.30;;;;;;;;;;5113595;28;20502;-84
2021/01/19 11:53:28;;;;;;;10.90;4.90;;;;;;;;;;5099190;28;20179;-84
2021/01/19 11:55:54;;;;;;;6.80;4.20;;;;;;;;;;5098403;28;20187;-86
2021/01/19 11:58:21;;;;;;;9.18;3.72;;;;;;;;;;5131304;27;20194;-88
2021/01/19 12:00:47;;;;;;;7.97;3.92;;;;;;;;;;5098946;28;20273;-83
2021/01/19 12:03:13;;;;;;;13.52;4.20;;;;;;;;;;5093298;28;20168;-82
2021/01/19 12:05:41;;;;;;;6.60;4.30;;;;;;;;;;5096878;28;20427;-87
2021/01/19 12:08:07;;;;;;;5.97;3.95;;;;;;;;;;5097052;28;20430;-84
2021/01/19 12:10:32;;;;;;;12.20;4.33;;;;;;;;;;5098023;28;20286;-86
2021/01/19 12:12:58;;;;;;;11.45;4.55;;;;;;;;;;5120204;28;20445;-86
2021/01/19 12:15:25;;;;;;;7.90;3.50;;;;;;;;;;5115895;28;20180;-84
2021/01/19 12:17:52;;;;;;;9.82;4.70;;;;;;;;;;5087016;28;20188;-83
2021/01/19 12:20:18;;;;;;;9.88;3.90;;;;;;;;;;5082537;28;20203;-83
2021/01/19 12:22:44;;;;;;;7.32;3.47;;;;;;;;;;5082398;28;20187;-86
2021/01/19 12:25:10;;;;;;;12.10;4.00;;;;;;;;;;5085429;28;20189;-83
2021/01/19 12:27:36;;;;;;;8.80;3.40;;;;;;;;;;5085922;28;20535;-81
2021/01/19 12:30:02;;;;;;;7.13;3.95;;;;;;;;;;5100645;28;20645;-84
2021/01/19 12:32:46;;;;;;;5.00;3.60;;;;;;;;;;5118573;27;20300;-86
2021/01/19 12:35:12;;;;;;;7.82;3.42;;;;;;;;;;5111479;28;20251;-85
2021/01/19 12:37:38;;;;;;;5.75;3.85;;;;;;;;;;5093227;28;20179;-85
2021/01/19 12:40:05;;;;;;;10.30;3.07;;;;;;;;;;5089944;28;20195;-81
2021/01/19 12:42:31;;;;;;;6.18;3.65;;;;;;;;;;5101443;28;20472;-86
2021/01/19 12:44:57;;;;;;;5.00;3.40;;;;;;;;;;5103785;28;20159;-88
2021/01/19 12:47:23;;;;;;;9.88;3.50;;;;;;;;;;5114692;28;20426;-81
2021/01/19 12:49:49;;;;;;;3.38;3.08;;;;;;;;;;5099767;28;20226;-85
2021/01/19 12:52:16;;;;;;;4.83;3.33;;;;;;;;;;5098592;28;20676;-87
2021/01/19 12:54:42;;;;;;;4.68;3.25;;;;;;;;;;5091605;28;20454;-85
2021/01/19 12:57:13;;;;;;;5.80;2.92;;;;;;;;;;5093679;28;20176;-81
2021/01/19 12:59:39;;;;;;;3.88;2.47;;;;;;;;;;5115488;28;20195;-83
2021/01/19 13:02:05;;;;;;;9.65;3.28;;;;;;;;;;5115714;28;20187;-84
2021/01/19 13:04:31;;;;;;;5.37;3.73;;;;;;;;;;5093811;28;20191;-82
2021/01/19 13:06:57;;;;;;;7.80;3.20;;;;;;;;;;5106154;28;20488;-82
2021/01/19 13:09:23;;;;;;;4.87;3.17;;;;;;;;;;5096634;28;20175;-83
2021/01/19 13:11:49;;;;;;;3.40;2.75;;;;;;;;;;5104107;28;20548;-83
2021/01/19 13:14:15;;;;;;;7.68;3.03;;;;;;;;;;5096171;28;20549;-83
2021/01/19 13:16:41;;;;;;;5.05;2.60;;;;;;;;;;5109436;28;20263;-83
2021/01/19 13:19:08;;;;;;;5.05;3.30;;;;;;;;;;5098531;28;20187;-84
2021/01/19 13:21:34;;;;;;;6.13;3.20;;;;;;;;;;5091294;28;20198;-83
2021/01/19 13:23:59;;;;;;;5.20;3.28;;;;;;;;;;5092308;28;20172;-85
2021/01/19 13:26:26;;;;;;;3.88;2.60;;;;;;;;;;5091608;28;20187;-83
2021/01/19 13:28:52;;;;;;;6.35;3.22;;;;;;;;;;5094740;28;20191;-82
2021/01/19 13:31:21;;;;;;;3.83;2.97;;;;;;;;;;5103300;28;20211;-82
2021/01/19 13:33:47;;;;;;;5.85;3.15;;;;;;;;;;5107714;28;20604;-83
2021/01/19 13:36:14;;;;;;;6.30;3.63;;;;;;;;;;5111125;28;20207;-82
2021/01/19 13:38:40;;;;;;;7.10;3.05;;;;;;;;;;5111998;28;20524;-83
2021/01/19 13:41:06;;;;;;;5.77;2.80;;;;;;;;;;5108616;28;20184;-81
2021/01/19 13:43:32;;;;;;;4.43;2.72;;;;;;;;;;5092844;28;20465;-81
2021/01/19 13:45:58;;;;;;;3.83;2.75;;;;;;;;;;5088475;28;20180;-82
2021/01/19 13:48:24;;;;;;;3.35;2.75;;;;;;;;;;5088383;28;20203;-83
2021/01/19 13:50:50;;;;;;;6.25;3.15;;;;;;;;;;5102183;28;20225;-83
2021/01/19 13:53:16;;;;;;;5.30;2.70;;;;;;;;;;5105249;28;20180;-82
2021/01/19 13:55:42;;;;;;;4.35;2.80;;;;;;;;;;5104511;28;20183;-82
2021/01/19 13:58:08;;;;;;;6.75;3.63;;;;;;;;;;5092232;28;20652;-85
2021/01/19 14:00:34;;;;;;;4.23;3.50;;;;;;;;;;5104371;28;20179;-81
2021/01/19 14:03:00;;;;;;;5.15;3.05;;;;;;;;;;5092322;28;20449;-84
2021/01/19 14:05:26;;;;;;;7.20;2.97;;;;;;;;;;5098871;28;20248;-82
2021/01/19 14:07:52;;;;;;;6.47;3.03;;;;;;;;;;5092491;28;20171;-83
2021/01/19 14:10:18;;;;;;;5.57;3.53;;;;;;;;;;5090172;28;20262;-84
2021/01/19 14:12:44;;;;;;;6.00;3.47;;;;;;;;;;5088751;28;20472;-83
2021/01/19 14:15:11;;;;;;;8.25;3.90;;;;;;;;;;5100631;28;20191;-81
2021/01/19 14:17:38;;;;;;;5.85;3.15;;;;;;;;;;5095912;28;20634;-82
2021/01/19 14:20:05;;;;;;;4.32;3.63;;;;;;;;;;5093660;28;20185;-81
2021/01/19 14:22:31;;;;;;;7.32;3.72;;;;;;;;;;5093869;28;20175;-84
2021/01/19 14:24:58;;;;;;;6.45;3.60;;;;;;;;;;5105047;28;20213;-81
2021/01/19 14:27:27;;;;;;;5.05;3.10;;;;;;;;;;5100797;28;20191;-82
2021/01/19 14:29:54;;;;;;;5.85;3.90;;;;;;;;;;5092802;28;20184;-82
2021/01/19 14:32:20;;;;;;;7.68;4.20;;;;;;;;;;5100962;28;20850;-83
2021/01/19 14:34:46;;;;;;;4.43;2.45;;;;;;;;;;5101506;28;20210;-84
2021/01/19 14:37:15;;;;;;;4.63;2.90;;;;;;;;;;5101906;28;20679;-84
2021/01/19 14:39:41;;;;;;;8.77;3.22;;;;;;;;;;5087508;28;20200;-86
2021/01/19 14:42:07;;;;;;;4.22;2.92;;;;;;;;;;5098291;28;20665;-81
2021/01/19 14:44:33;;;;;;;4.53;3.22;;;;;;;;;;5094083;28;20180;-80
2021/01/19 14:46:59;;;;;;;4.80;3.30;;;;;;;;;;5097998;28;20188;-82
2021/01/19 14:49:25;;;;;;;9.27;4.70;;;;;;;;;;5091385;28;20176;-84
2021/01/19 14:51:51;;;;;;;5.95;3.60;;;;;;;;;;5099132;28;20203;-80
2021/01/19 14:54:17;;;;;;;5.75;3.88;;;;;;;;;;5095845;28;20172;-86
2021/01/19 14:56:43;;;;;;;7.32;3.33;;;;;;;;;;5096526;28;20212;-83
2021/01/19 14:59:10;;;;;;;6.65;4.20;;;;;;;;;;5105194;28;20649;-83
2021/01/19 15:01:43;;;;;;;10.32;7.32;;;;;;;;;;5102433;28;20241;-84
2021/01/19 15:04:10;;;;;;;8.32;3.20;;;;;;;;;;5105241;28;20258;-83
2021/01/19 15:06:46;;;;;;;5.78;2.70;;;;;;;;;;5105236;28;20176;-84
2021/01/19 15:09:12;;;;;;;5.57;3.53;;;;;;;;;;5101192;28;20179;-81
2021/01/19 15:11:38;;;;;;;4.43;3.30;;;;;;;;;;5099309;28;20397;-85
2021/01/19 15:14:04;;;;;;;6.05;4.20;;;;;;;;;;5101714;28;20199;-85
2021/01/19 15:16:30;;;;;;;6.60;3.72;;;;;;;;;;5097259;28;20191;-87
2021/01/19 15:18:56;;;;;;;4.10;3.70;;;;;;;;;;5096090;28;20234;-88
2021/01/19 15:21:22;;;;;;;7.03;4.00;;;;;;;;;;5094726;28;20172;-87
2021/01/19 15:23:48;;;;;;;4.20;3.05;;;;;;;;;;5104072;28;20448;-85
2021/01/19 15:26:14;;;;;;;6.22;3.72;;;;;;;;;;5098753;28;20194;-84
2021/01/19 15:28:40;;;;;;;8.33;4.07;;;;;;;;;;5094491;28;20283;-86
2021/01/19 15:31:10;;;;;;;6.40;3.73;;;;;;;;;;5099022;28;21028;-84
2021/01/19 15:33:36;;;;;;;4.97;3.67;;;;;;;;;;5096922;28;20504;-82
2021/01/19 15:36:02;;;;;;;7.30;3.70;;;;;;;;;;5102172;28;20160;-84
2021/01/19 15:38:28;;;;;;;8.77;3.80;;;;;;;;;;5102880;28;20492;-86
2021/01/19 15:40:54;;;;;;;5.97;3.30;;;;;;;;;;5103766;28;20236;-84
2021/01/19 15:43:20;;;;;;;4.03;2.83;;;;;;;;;;5088813;28;20436;-85
2021/01/19 15:45:46;;;;;;;4.88;3.40;;;;;;;;;;5092062;28;20433;-84
2021/01/19 15:48:13;;;;;;;5.35;3.08;;;;;;;;;;5098708;28;20641;-87
2021/01/19 15:50:42;;;;;;;6.25;3.40;;;;;;;;;;5100225;28;20187;-84
2021/01/19 15:53:09;;;;;;;5.55;2.63;;;;;;;;;;5097839;28;20219;-83
2021/01/19 15:55:35;;;;;;;8.48;3.33;;;;;;;;;;5103992;28;20190;-85
2021/01/19 15:58:01;;;;;;;4.40;4.03;;;;;;;;;;5104132;28;20178;-84
2021/01/19 16:00:26;;;;;;;6.43;3.17;;;;;;;;;;5093080;28;20198;-83
2021/01/19 16:02:52;;;;;;;3.47;3.00;;;;;;;;;;5089159;28;20411;-81
2021/01/19 16:05:19;;;;;;;7.25;3.38;;;;;;;;;;5097769;28;20441;-83
2021/01/19 16:07:45;;;;;;;5.00;3.30;;;;;;;;;;5104130;28;20205;-86
2021/01/19 16:10:11;;;;;;;10.02;3.42;;;;;;;;;;5089322;28;20184;-83
2021/01/19 16:12:37;;;;;;;8.20;2.88;;;;;;;;;;5087304;28;20226;-85
2021/01/19 16:15:03;;;;;;;3.40;2.70;;;;;;;;;;5100277;28;20171;-86
2021/01/19 16:17:29;;;;;;;4.43;2.60;;;;;;;;;;5101262;28;20180;-84
2021/01/19 16:19:55;;;;;;;6.20;3.07;;;;;;;;;;5089106;28;20184;-84
2021/01/19 16:22:21;;;;;;;4.30;3.13;;;;;;;;;;5101970;28;20457;-84
2021/01/19 16:24:47;;;;;;;4.90;3.43;;;;;;;;;;5092670;28;20441;-84
2021/01/19 16:27:13;;;;;;;7.07;3.70;;;;;;;;;;5103421;28;20453;-86
2021/01/19 16:29:39;;;;;;;4.03;3.27;;;;;;;;;;5090265;28;20446;-84
2021/01/19 16:32:05;;;;;;;4.80;3.53;;;;;;;;;;5104170;28;20538;-86
2021/01/19 16:34:31;;;;;;;3.88;3.45;;;;;;;;;;5094530;28;20430;-83
2021/01/19 16:36:57;;;;;;;6.00;3.67;;;;;;;;;;5099165;28;20171;-87
2021/01/19 16:39:23;;;;;;;7.38;3.08;;;;;;;;;;5096200;28;20814;-83
2021/01/19 16:41:51;;;;;;;6.40;3.55;;;;;;;;;;5092691;28;20553;-86
2021/01/19 16:44:17;;;;;;;6.47;3.20;;;;;;;;;;5091558;28;20208;-83